Kopaonik, Serbia
Current Conditions -  °F | °C
As of 5:00 AM on Thursday 27 Nov 2014 (Local Time) from LYKV Reporting Station
Few Clouds Few Clouds  
Wind Chill: 34°   Ceiling: Unl
Heat Index: 34°   Visibility: 6mi
Dew Point: 30°   Wind: 2mph
Humidity: 87%   Direction: NA
Pressure: 30.12"   Gusts: NA
Location:  43.28°N, 20.8°E
Report Text: LYKV 270300Z VRB02KT 9999 FEW040 01/M01 Q1020 NOSIG
Loading
Personal Weather Stations






























Interactive Weather Map New forecast layout! Learn more

10-Day Weather Forecast

Advertisements
Track Severe Weather on mobile